Time;durP1;ratioP1;P1;durP2;ratioP2;P2;SDS_P1;SDS_P2;PMS_P1;PMS_P2;Temp;Humidity;BMP_temperature;BMP_pressure;BME280_temperature;BME280_humidity;BME280_pressure;Samples;Min_cycle;Max_cycle;Signal;HPM_P1;HPM_P2
2022/06/25 00:00:28;;;;;;;5.20;3.13;;;;;;;-145.69;100.00;71384.47;5072179;28;20199;-78
2022/06/25 00:02:54;;;;;;;5.27;2.70;;;;;;;-145.69;100.00;71406.38;5072657;28;20195;-78
2022/06/25 00:05:32;;;;;;;5.30;2.63;;;;;;;-145.69;100.00;71408.38;5072486;28;20198;-77
2022/06/25 00:07:59;;;;;;;4.87;2.90;;;;;;;-145.69;100.00;71404.38;5072381;28;20234;-77
2022/06/25 00:10:26;;;;;;;5.67;3.37;;;;;;;-145.69;100.00;71390.47;5072106;28;20209;-78
2022/06/25 00:12:52;;;;;;;7.90;3.00;;;;;;;-145.69;100.00;71386.47;5074497;28;20711;-78
2022/06/25 00:15:20;;;;;;;4.77;3.20;;;;;;;-145.69;100.00;71398.41;5075919;28;20628;-78
2022/06/25 00:17:47;;;;;;;6.17;3.00;;;;;;;-145.69;100.00;71398.41;5075614;28;20199;-77
2022/06/25 00:20:13;;;;;;;5.50;3.23;;;;;;;-145.69;100.00;71386.47;5075818;28;20550;-77
2022/06/25 00:22:40;;;;;;;4.33;3.20;;;;;;;-145.69;100.00;71386.47;5075566;28;20226;-78
2022/06/25 00:25:07;;;;;;;4.27;3.00;;;;;;;-145.69;100.00;71394.44;5075391;28;20207;-77
2022/06/25 00:27:33;;;;;;;5.90;2.83;;;;;;;-145.69;100.00;71400.41;5075554;28;20207;-78
2022/06/25 00:29:59;;;;;;;5.60;2.20;;;;;;;-145.69;100.00;71406.38;5061089;28;20203;-77
2022/06/25 00:32:27;;;;;;;4.83;2.50;;;;;;;-145.69;100.00;71426.28;5055308;28;20713;-77
2022/06/25 00:34:54;;;;;;;3.30;2.40;;;;;;;-145.69;100.00;71430.25;5055223;28;20200;-78
2022/06/25 00:37:20;;;;;;;3.37;2.47;;;;;;;-145.69;100.00;71450.16;5055215;28;20719;-78
2022/06/25 00:39:47;;;;;;;12.53;2.90;;;;;;;-145.69;100.00;71466.06;5055179;28;20207;-78
2022/06/25 00:42:14;;;;;;;2.43;1.97;;;;;;;-145.69;100.00;71493.94;5060336;28;20199;-78
2022/06/25 00:44:41;;;;;;;4.83;2.30;;;;;;;-145.69;100.00;71513.81;5075148;28;20190;-78
2022/06/25 00:47:09;;;;;;;3.60;2.57;;;;;;;-145.69;100.00;71493.94;5075222;28;20225;-78
2022/06/25 00:49:37;;;;;;;29.30;2.93;;;;;;;-145.69;100.00;71505.88;5075069;28;20206;-78
2022/06/25 00:52:10;;;;;;;8.70;3.07;;;;;;;-145.69;100.00;71501.88;5074955;28;20558;-78
2022/06/25 00:54:38;;;;;;;5.97;3.60;;;;;;;-145.69;100.00;71501.88;5073776;28;20434;-77
2022/06/25 00:57:06;;;;;;;4.27;2.37;;;;;;;-145.69;100.00;71493.94;5075199;28;20291;-78
2022/06/25 00:59:37;;;;;;;4.47;3.20;;;;;;;-145.69;100.00;71480.00;5075189;28;20288;-78
2022/06/25 01:02:04;;;;;;;4.93;2.60;;;;;;;-145.69;100.00;71482.00;5075166;28;20226;-78
2022/06/25 01:04:31;;;;;;;7.27;2.67;;;;;;;-145.69;100.00;71482.00;5074995;28;20215;-77
2022/06/25 01:06:59;;;;;;;4.33;2.70;;;;;;;-145.69;100.00;71487.97;5074888;28;20612;-78
2022/06/25 01:09:26;;;;;;;9.80;2.80;;;;;;;-145.69;100.00;71489.94;5074912;28;20203;-78
2022/06/25 01:11:52;;;;;;;4.13;2.67;;;;;;;-145.69;100.00;71491.94;5074570;28;20222;-77
2022/06/25 01:14:19;;;;;;;3.47;2.50;;;;;;;-145.69;100.00;71507.84;5074602;28;20620;-78
2022/06/25 01:16:45;;;;;;;5.17;3.10;;;;;;;-145.69;100.00;71489.94;5074698;28;20225;-77
2022/06/25 01:19:12;;;;;;;4.50;3.40;;;;;;;-145.69;100.00;71478.00;5072499;28;20252;-77
2022/06/25 01:21:41;;;;;;;4.20;3.10;;;;;;;-145.69;100.00;71478.00;5074315;28;20203;-76
2022/06/25 01:24:10;;;;;;;3.93;2.90;;;;;;;-145.69;100.00;71478.00;5073551;28;20222;-77
2022/06/25 01:26:39;;;;;;;4.07;2.90;;;;;;;-145.69;100.00;71483.97;5074580;28;20206;-78
2022/06/25 01:29:06;;;;;;;2.77;2.47;;;;;;;-145.69;100.00;71485.97;5074003;28;20200;-77
2022/06/25 01:31:33;;;;;;;6.63;2.80;;;;;;;-145.69;100.00;71482.00;5064154;28;20203;-77
2022/06/25 01:34:00;;;;;;;3.30;2.60;;;;;;;-145.69;100.00;71478.00;5074418;28;20234;-77
2022/06/25 01:36:27;;;;;;;4.23;3.00;;;;;;;-145.69;100.00;71482.00;5074315;28;20260;-77
2022/06/25 01:38:54;;;;;;;5.33;3.10;;;;;;;-145.69;100.00;71476.03;5074227;28;20547;-78
2022/06/25 01:41:22;;;;;;;7.10;3.33;;;;;;;-145.69;100.00;71470.06;5074115;28;20668;-78
2022/06/25 01:43:48;;;;;;;3.67;2.80;;;;;;;-145.69;100.00;71476.03;5073723;28;20201;-77
2022/06/25 01:46:15;;;;;;;6.03;2.80;;;;;;;-145.69;100.00;71483.97;5073888;28;20199;-77
2022/06/25 01:48:42;;;;;;;4.73;3.00;;;;;;;-145.69;100.00;71485.97;5074280;28;20600;-77
2022/06/25 01:51:08;;;;;;;5.57;3.10;;;;;;;-145.69;100.00;71499.91;5074004;28;20256;-77
2022/06/25 01:53:35;;;;;;;6.17;2.87;;;;;;;-145.69;100.00;71505.88;5073850;28;20240;-77
2022/06/25 01:56:02;;;;;;;3.03;2.50;;;;;;;-145.69;100.00;71513.81;5073977;28;20198;-77
2022/06/25 01:58:31;;;;;;;5.37;2.50;;;;;;;-145.69;100.00;71515.81;5073720;28;20211;-77
2022/06/25 02:00:58;;;;;;;5.20;2.77;;;;;;;-145.69;100.00;71515.81;5073849;28;20203;-77
2022/06/25 02:03:24;;;;;;;5.37;2.90;;;;;;;-145.69;100.00;71513.81;5074073;28;20205;-77
2022/06/25 02:06:00;;;;;;;2.77;2.40;;;;;;;-145.69;100.00;71521.78;5073750;28;20245;-78
2022/06/25 02:08:29;;;;;;;3.00;2.60;;;;;;;-145.69;100.00;71523.78;5073880;28;20203;-78
2022/06/25 02:10:57;;;;;;;7.27;3.00;;;;;;;-145.69;100.00;71539.69;5073592;28;20226;-78
2022/06/25 02:13:24;;;;;;;4.93;2.70;;;;;;;-145.69;100.00;71531.75;5072767;28;20627;-77
2022/06/25 02:15:53;;;;;;;4.83;3.00;;;;;;;-145.69;100.00;71517.81;5073683;28;20203;-78
2022/06/25 02:18:20;;;;;;;4.30;2.67;;;;;;;-145.69;100.00;71509.84;5073490;28;20199;-78
2022/06/25 02:20:46;;;;;;;9.37;3.23;;;;;;;-145.69;100.00;71527.75;5073468;28;20203;-78
2022/06/25 02:23:14;;;;;;;3.60;3.07;;;;;;;-145.69;100.00;71521.78;5073411;28;20231;-78
2022/06/25 02:25:42;;;;;;;7.43;3.70;;;;;;;-145.69;100.00;71501.88;5073145;28;20199;-78
2022/06/25 02:28:08;;;;;;;5.47;3.40;;;;;;;-145.69;100.00;71501.88;5073169;28;20364;-78
2022/06/25 02:30:35;;;;;;;5.47;3.97;;;;;;;-145.69;100.00;71501.88;5073157;28;20558;-78
2022/06/25 02:33:03;;;;;;;6.63;3.47;;;;;;;-145.69;100.00;71511.84;5073251;28;20233;-78
2022/06/25 02:35:30;;;;;;;7.57;3.17;;;;;;;-145.69;100.00;71515.81;5073100;28;20657;-78
2022/06/25 02:37:56;;;;;;;3.77;2.90;;;;;;;-145.69;100.00;71517.81;5069615;28;20203;-78
2022/06/25 02:40:23;;;;;;;4.07;2.87;;;;;;;-145.69;100.00;71529.75;5073074;28;20249;-78
2022/06/25 02:42:49;;;;;;;7.00;3.23;;;;;;;-145.69;100.00;71537.72;5073205;28;20203;-79
2022/06/25 02:45:16;;;;;;;4.43;2.73;;;;;;;-145.69;100.00;71561.59;5073224;28;20237;-79
2022/06/25 02:47:43;;;;;;;4.30;2.80;;;;;;;-145.69;100.00;71565.56;5073148;28;20194;-78
2022/06/25 02:50:11;;;;;;;3.53;2.77;;;;;;;-145.69;100.00;71565.56;5073003;28;20199;-79
2022/06/25 02:52:38;;;;;;;5.17;2.90;;;;;;;-145.69;100.00;71573.53;5072808;28;20289;-77
2022/06/25 02:55:06;;;;;;;6.93;3.13;;;;;;;-145.69;100.00;71575.50;5072928;28;20214;-79
2022/06/25 03:00:17;;;;;;;5.50;3.37;;;;;;;-145.69;100.00;71557.59;5072673;28;20739;-78
2022/06/25 03:02:44;;;;;;;5.60;3.60;;;;;;;-145.69;100.00;71561.59;5072590;28;21005;-77
2022/06/25 03:05:12;;;;;;;6.00;3.13;;;;;;;-145.69;100.00;71567.56;5072687;28;20206;-78
2022/06/25 03:07:38;;;;;;;4.53;3.20;;;;;;;-145.69;100.00;71557.59;5072754;28;20199;-79
2022/06/25 03:10:05;;;;;;;5.67;3.80;;;;;;;-145.69;100.00;71549.66;5072900;28;20245;-78
2022/06/25 03:12:32;;;;;;;6.68;4.10;;;;;;;-145.69;100.00;71555.63;5071922;28;20445;-77
2022/06/25 03:14:58;;;;;;;5.30;3.37;;;;;;;-145.69;100.00;71551.63;5072833;28;20201;-78
2022/06/25 03:17:25;;;;;;;8.00;3.47;;;;;;;-145.69;100.00;71541.69;5072833;28;20202;-78
2022/06/25 03:19:52;;;;;;;4.73;3.10;;;;;;;-145.69;100.00;71533.72;5072612;28;20206;-78
2022/06/25 03:22:20;;;;;;;5.63;3.40;;;;;;;-145.69;100.00;71545.66;5072468;28;20231;-78
2022/06/25 03:24:47;;;;;;;6.80;3.20;;;;;;;-145.69;100.00;71557.59;5072901;28;20202;-79
2022/06/25 03:27:13;;;;;;;7.20;3.30;;;;;;;-145.69;100.00;71555.63;5072582;28;20210;-78
2022/06/25 03:29:39;;;;;;;6.63;3.13;;;;;;;-145.69;100.00;71557.59;5072586;28;20206;-78
2022/06/25 03:32:07;;;;;;;6.03;3.40;;;;;;;-145.69;100.00;71553.63;5072643;28;20289;-78
2022/06/25 03:34:34;;;;;;;5.47;3.83;;;;;;;-145.69;100.00;71553.63;5072568;28;20226;-78
2022/06/25 03:37:00;;;;;;;5.90;3.50;;;;;;;-145.69;100.00;71547.66;5072810;28;20203;-78
2022/06/25 03:39:28;;;;;;;6.23;3.70;;;;;;;-145.69;100.00;71537.72;5072635;28;20615;-78
2022/06/25 03:41:54;;;;;;;7.83;3.50;;;;;;;-145.69;100.00;71549.66;5071967;28;20657;-78
2022/06/25 03:44:21;;;;;;;5.63;3.20;;;;;;;-145.69;100.00;71549.66;5072338;28;20204;-78
2022/06/25 03:46:47;;;;;;;4.60;3.20;;;;;;;-145.69;100.00;71553.63;5073008;28;20479;-78
2022/06/25 03:49:14;;;;;;;3.90;3.00;;;;;;;-145.69;100.00;71557.59;5076202;28;20198;-78
2022/06/25 03:51:40;;;;;;;5.57;3.07;;;;;;;-145.69;100.00;71553.63;5076449;28;20269;-78
2022/06/25 03:54:06;;;;;;;3.90;3.10;;;;;;;-145.69;100.00;71557.59;5076071;28;20227;-78
2022/06/25 03:56:34;;;;;;;4.07;3.00;;;;;;;-145.69;100.00;71559.59;5076199;28;20248;-77
2022/06/25 03:59:01;;;;;;;7.47;3.80;;;;;;;-145.69;100.00;71555.63;5075989;28;20680;-78
2022/06/25 04:01:28;;;;;;;6.83;3.33;;;;;;;-145.69;100.00;71555.63;5075997;28;20203;-78
2022/06/25 04:03:54;;;;;;;5.43;3.70;;;;;;;-145.69;100.00;71553.63;5076574;28;20210;-78
2022/06/25 04:06:21;;;;;;;5.97;3.70;;;;;;;-145.69;100.00;71539.69;5076019;28;20195;-78
2022/06/25 04:08:47;;;;;;;8.60;3.47;;;;;;;-145.69;100.00;71537.72;5075830;28;20203;-78
2022/06/25 04:11:14;;;;;;;8.40;3.47;;;;;;;-145.69;100.00;71543.69;5075581;28;20572;-79
2022/06/25 04:13:41;;;;;;;8.77;4.03;;;;;;;-145.69;100.00;71525.78;5075790;28;20235;-79
2022/06/25 04:16:08;;;;;;;6.20;3.73;;;;;;;-145.69;100.00;71519.81;5075642;28;20198;-79
2022/06/25 04:18:34;;;;;;;5.27;3.17;;;;;;;-145.69;100.00;71529.75;5075799;28;20207;-78
2022/06/25 04:21:01;;;;;;;4.63;3.17;;;;;;;-145.69;100.00;71533.72;5075538;28;20199;-79
2022/06/25 04:23:27;;;;;;;6.90;3.23;;;;;;;-145.69;100.00;71529.75;5075533;28;20303;-79
2022/06/25 04:25:54;;;;;;;6.63;3.30;;;;;;;-145.69;100.00;71535.72;5075573;28;20852;-79
2022/06/25 04:31:06;;;;;;;4.80;3.20;;;;;;;-145.69;100.00;71539.69;5075601;28;20549;-79
2022/06/25 04:33:33;;;;;;;8.03;3.50;;;;;;;-145.69;100.00;71533.72;5075475;28;20233;-79
2022/06/25 04:35:59;;;;;;;6.87;3.70;;;;;;;-145.69;100.00;71529.75;5075565;28;20252;-79
2022/06/25 04:38:26;;;;;;;5.07;3.53;;;;;;;-145.69;100.00;71517.81;5075402;28;20285;-78
2022/06/25 04:40:52;;;;;;;4.90;3.27;;;;;;;-145.69;100.00;71513.81;5075053;28;20202;-79
2022/06/25 04:43:19;;;;;;;5.27;3.50;;;;;;;-145.69;100.00;71505.88;5063079;28;20290;-79
2022/06/25 04:45:45;;;;;;;5.50;3.23;;;;;;;-145.69;100.00;71489.94;5055331;28;20203;-79
2022/06/25 04:48:13;;;;;;;4.50;3.30;;;;;;;-145.69;100.00;71485.97;5055324;28;20277;-79
2022/06/25 04:50:42;;;;;;;4.67;3.30;;;;;;;-145.69;100.00;71482.00;5055049;28;20264;-79
2022/06/25 04:53:08;;;;;;;6.17;3.33;;;;;;;-145.69;100.00;71482.00;5055056;28;20200;-79
2022/06/25 04:55:35;;;;;;;8.00;3.13;;;;;;;-145.69;100.00;71470.06;5055283;28;20257;-79
2022/06/25 04:58:01;;;;;;;5.23;3.87;;;;;;;-145.69;100.00;71460.09;5053826;28;20195;-80
2022/06/25 05:00:28;;;;;;;9.60;4.00;;;;;;;-145.69;100.00;71454.13;5054801;28;20249;-79
2022/06/25 05:02:54;;;;;;;6.93;3.87;;;;;;;-145.69;100.00;71454.13;5054914;28;20654;-80
2022/06/25 05:05:22;;;;;;;7.20;3.63;;;;;;;-145.69;100.00;71438.22;5054817;28;20206;-79
2022/06/25 05:07:49;;;;;;;6.27;4.30;;;;;;;-145.69;100.00;71430.25;5054978;28;20295;-80
2022/06/25 05:10:15;;;;;;;7.57;4.07;;;;;;;-145.69;100.00;71422.28;5056079;28;20207;-79
2022/06/25 05:15:26;;;;;;;7.07;4.33;;;;;;;-145.69;100.00;71406.38;5074389;28;20237;-80
2022/06/25 05:17:52;;;;;;;6.70;4.20;;;;;;;-145.69;100.00;71394.44;5074436;28;20214;-80
2022/06/25 05:20:19;;;;;;;6.23;4.43;;;;;;;-145.69;100.00;71390.47;5074438;28;20608;-80
2022/06/25 05:22:46;;;;;;;6.73;4.60;;;;;;;-145.69;100.00;71380.50;5074204;28;20234;-79
2022/06/25 05:25:13;;;;;;;9.03;5.13;;;;;;;-145.69;100.00;71370.56;5074406;28;20259;-79
2022/06/25 05:27:39;;;;;;;9.33;5.13;;;;;;;-145.69;100.00;71358.63;5074487;28;20207;-79
2022/06/25 05:30:08;;;;;;;8.70;4.83;;;;;;;-145.69;100.00;71340.72;5074429;28;20203;-79
2022/06/25 05:32:34;;;;;;;8.38;4.97;;;;;;;-145.69;100.00;71322.81;5074364;28;20237;-79
2022/06/25 05:35:01;;;;;;;6.97;5.03;;;;;;;-145.69;100.00;71306.88;5074179;28;20231;-79
2022/06/25 05:37:27;;;;;;;8.70;5.03;;;;;;;-145.69;100.00;71283.00;5074300;28;20221;-79
2022/06/25 05:39:55;;;;;;;8.20;4.45;;;;;;;-145.69;100.00;71241.22;5074371;28;20202;-79
2022/06/25 05:42:22;;;;;;;5.03;3.53;;;;;;;-145.69;100.00;71159.63;5074247;28;20217;-79
2022/06/25 05:44:48;;;;;;;2.97;2.47;;;;;;;-145.69;100.00;71109.91;5074133;28;20561;-79
2022/06/25 05:47:15;;;;;;;2.78;2.20;;;;;;;-145.69;100.00;71012.41;5074070;28;20209;-80
2022/06/25 05:49:41;;;;;;;3.25;1.75;;;;;;;-145.69;100.00;71004.44;5073466;28;20268;-80
2022/06/25 05:52:08;;;;;;;3.13;1.50;;;;;;;-145.69;100.00;70885.06;5073827;28;20219;-80
2022/06/25 05:54:34;;;;;;;4.10;1.77;;;;;;;-145.69;100.00;70849.25;5073907;28;20238;-79
2022/06/25 05:57:02;;;;;;;1.83;1.00;;;;;;;-145.69;100.00;70817.41;5073719;28;20283;-77
2022/06/25 05:59:29;;;;;;;1.98;0.98;;;;;;;-145.69;100.00;70763.69;5073810;28;20195;-79
2022/06/25 06:01:55;;;;;;;1.88;0.93;;;;;;;-145.69;100.00;70733.84;5073702;28;20206;-80
2022/06/25 06:04:21;;;;;;;2.47;1.20;;;;;;;-145.69;100.00;70781.59;5073665;28;20199;-78
2022/06/25 06:06:48;;;;;;;1.38;0.90;;;;;;;-145.69;100.00;70841.28;5073512;28;20210;-78
2022/06/25 06:09:14;;;;;;;1.83;0.75;;;;;;;-145.69;100.00;70747.78;5073409;28;20199;-77
2022/06/25 06:11:41;;;;;;;3.97;0.90;;;;;;;-145.69;100.00;70666.22;5073620;28;20538;-78
2022/06/25 06:14:08;;;;;;;1.40;0.90;;;;;;;-145.69;100.00;70745.78;5073536;28;20246;-77
2022/06/25 06:16:35;;;;;;;3.03;0.80;;;;;;;-145.69;100.00;70706.00;5073342;28;20612;-78
2022/06/25 06:19:02;;;;;;;1.38;0.65;;;;;;;-145.69;100.00;70725.91;5073362;28;20252;-77
2022/06/25 06:21:29;;;;;;;1.42;0.70;;;;;;;-145.69;100.00;70729.88;5073434;28;20202;-77
2022/06/25 06:23:55;;;;;;;0.93;0.80;;;;;;;-145.69;100.00;70737.84;5073440;28;20291;-77
2022/06/25 06:26:22;;;;;;;3.78;0.70;;;;;;;-145.69;100.00;70729.88;5073316;28;20198;-78
2022/06/25 06:28:48;;;;;;;2.58;0.60;;;;;;;-145.69;100.00;70763.69;5073018;28;20616;-78
2022/06/25 06:31:16;;;;;;;2.42;0.77;;;;;;;-145.69;100.00;70781.59;5073255;28;20206;-78
2022/06/25 06:33:42;;;;;;;0.68;0.68;;;;;;;-145.69;100.00;70793.53;5072969;28;20201;-77
2022/06/25 06:36:09;;;;;;;1.02;0.77;;;;;;;-145.69;100.00;70706.00;5073306;28;20199;-77
2022/06/25 06:38:35;;;;;;;2.00;0.60;;;;;;;-145.69;100.00;70715.94;5073211;28;20207;-77
2022/06/25 06:41:01;;;;;;;1.02;0.77;;;;;;;-145.69;100.00;70709.97;5073066;28;20203;-77
2022/06/25 06:43:28;;;;;;;1.17;0.68;;;;;;;-145.69;100.00;70662.22;5072968;28;20203;-77
2022/06/25 06:45:54;;;;;;;2.92;0.80;;;;;;;-145.69;100.00;70670.19;5073065;28;20202;-77
2022/06/25 06:48:22;;;;;;;1.48;0.60;;;;;;;-145.69;100.00;70626.41;5066797;28;20700;-77
2022/06/25 06:50:48;;;;;;;3.13;0.60;;;;;;;-145.69;100.00;70670.19;5053091;28;20551;-77
2022/06/25 06:53:15;;;;;;;3.33;0.52;;;;;;;-145.69;100.00;70682.13;5053161;28;20195;-78
2022/06/25 06:55:41;;;;;;;1.10;0.57;;;;;;;-145.69;100.00;70654.28;5052941;28;20227;-77
2022/06/25 06:58:08;;;;;;;1.83;0.70;;;;;;;-145.69;100.00;70676.16;5067071;28;20198;-78
2022/06/25 07:00:34;;;;;;;0.70;0.60;;;;;;;-145.69;100.00;70662.22;5072821;28;20222;-77
2022/06/25 07:03:01;;;;;;;1.70;0.70;;;;;;;-145.69;100.00;70690.09;5072764;28;20653;-77
2022/06/25 07:05:29;;;;;;;0.80;0.60;;;;;;;-145.69;100.00;70674.16;5072873;28;20202;-77
2022/06/25 07:07:55;;;;;;;3.60;1.08;;;;;;;-145.69;98.29;70682.13;5072578;28;20561;-78
2022/06/25 07:10:22;;;;;;;0.77;0.70;;;;;;;-145.69;93.84;70682.13;5072674;28;20202;-79
2022/06/25 07:12:49;;;;;;;0.73;0.65;;;;;;;-145.69;100.00;70658.25;5072836;28;20242;-78
2022/06/25 07:15:15;;;;;;;0.63;0.63;;;;;;;-145.69;89.80;70700.03;5072282;28;20222;-78
2022/06/25 07:17:41;;;;;;;1.42;0.82;;;;;;;-145.69;97.58;70682.13;5072596;28;20198;-78
2022/06/25 07:20:09;;;;;;;1.60;0.63;;;;;;;-145.69;96.74;70696.06;5072691;28;20206;-77
2022/06/25 07:22:37;;;;;;;2.22;0.98;;;;;;;-145.69;100.00;70694.06;5074977;28;20601;-78
2022/06/25 07:25:04;;;;;;;2.58;1.20;;;;;;;-145.69;97.13;70678.16;5076735;28;20199;-79
2022/06/25 07:27:32;;;;;;;1.80;0.77;;;;;;;-145.69;98.00;70678.16;5076335;28;20194;-79
2022/06/25 07:29:58;;;;;;;3.53;0.80;;;;;;;-145.69;97.05;70684.13;5076330;28;20198;-78
2022/06/25 07:32:24;;;;;;;2.30;0.90;;;;;;;-145.69;100.00;70654.28;5076838;28;20205;-78
2022/06/25 07:34:51;;;;;;;3.40;0.90;;;;;;;-145.69;92.51;70662.22;5076515;28;20237;-79
2022/06/25 07:37:17;;;;;;;3.70;0.90;;;;;;;-145.69;93.46;70644.31;5076559;28;20205;-79
2022/06/25 07:39:45;;;;;;;2.22;1.00;;;;;;;-145.69;94.93;70610.50;5076383;28;20289;-77
2022/06/25 07:42:12;;;;;;;1.75;0.93;;;;;;;-145.69;97.36;70618.47;5076187;28;20206;-78
2022/06/25 07:44:38;;;;;;;2.10;1.00;;;;;;;-145.69;92.66;70600.56;5076237;28;20211;-79
2022/06/25 07:47:05;;;;;;;2.53;1.02;;;;;;;-145.69;99.97;70590.63;5076485;28;20206;-79
2022/06/25 07:51:56;;;;;;;2.42;0.98;;;;;;;-145.69;91.42;70562.75;5076048;28;20199;-78
2022/06/25 07:52:17;;;;;;;1.30;0.98;;;;;;;-145.69;89.24;70562.75;5074798;28;20487;-78
2022/06/25 07:54:43;;;;;;;1.08;0.90;;;;;;;-145.69;85.95;70560.78;5076024;28;20226;-79
2022/06/25 07:57:11;;;;;;;3.58;1.10;;;;;;;-145.69;85.07;70566.75;5075576;28;20561;-78
2022/06/25 07:59:37;;;;;;;1.02;0.82;;;;;;;-145.69;86.87;70594.59;5076084;28;20195;-78
2022/06/25 08:02:04;;;;;;;2.30;0.90;;;;;;;-145.69;87.17;70548.84;5076013;28;20206;-79
2022/06/25 08:04:30;;;;;;;2.42;1.10;;;;;;;-145.69;85.91;70526.94;5075827;28;20206;-78
2022/06/25 08:06:57;;;;;;;5.00;1.45;;;;;;;-145.69;89.08;70503.06;5076022;28;20199;-77
2022/06/25 08:09:23;;;;;;;3.17;1.02;;;;;;;-145.69;77.30;70501.09;5075956;28;20199;-78
2022/06/25 08:11:50;;;;;;;8.10;1.33;;;;;;;-145.69;75.22;70534.91;5076063;28;20675;-79
2022/06/25 08:14:18;;;;;;;4.00;1.30;;;;;;;-145.69;76.76;70522.97;5075619;28;20190;-78
2022/06/25 08:16:44;;;;;;;2.47;1.25;;;;;;;-145.69;77.33;70530.94;5075910;28;20202;-78
2022/06/25 08:19:11;;;;;;;2.50;1.30;;;;;;;-145.69;80.86;70548.84;5075723;28;20195;-78
2022/06/25 08:21:37;;;;;;;6.13;1.30;;;;;;;-145.69;82.87;70568.72;5075813;28;20201;-78
2022/06/25 08:24:05;;;;;;;2.40;1.10;;;;;;;-145.69;79.78;70586.63;5075536;28;20288;-79
2022/06/25 08:26:31;;;;;;;1.67;1.17;;;;;;;-145.69;86.13;70542.88;5075724;28;20229;-78
2022/06/25 08:28:58;;;;;;;2.80;0.88;;;;;;;-145.69;83.37;70548.84;5075579;28;20198;-78
2022/06/25 08:31:25;;;;;;;1.73;0.90;;;;;;;-145.69;82.90;70530.94;5075603;28;20206;-78
2022/06/25 08:33:52;;;;;;;2.15;1.02;;;;;;;-145.69;79.05;70515.00;5075317;28;20202;-78
2022/06/25 08:36:18;;;;;;;2.08;0.95;;;;;;;-145.69;78.26;70524.97;5075021;28;20218;-79
2022/06/25 08:38:45;;;;;;;2.67;0.93;;;;;;;-145.69;79.95;70556.78;5075282;28;20257;-78
2022/06/25 08:41:11;;;;;;;3.80;0.90;;;;;;;-145.69;79.26;70542.88;5075342;28;20206;-79
2022/06/25 08:43:39;;;;;;;1.65;0.85;;;;;;;-145.69;87.45;70517.00;5075581;28;20205;-78
2022/06/25 08:46:06;;;;;;;1.95;1.08;;;;;;;-145.69;83.41;70497.09;5074974;28;20673;-78
2022/06/25 08:48:37;;;;;;;2.40;1.10;;;;;;;-145.69;85.57;70455.34;5066471;28;20195;-79
2022/06/25 08:51:05;;;;;;;2.60;1.02;;;;;;;-145.69;82.26;70447.38;5055290;28;20224;-79
2022/06/25 08:53:33;;;;;;;2.78;0.95;;;;;;;-145.69;81.43;70465.28;5055701;28;20653;-78
2022/06/25 08:56:00;;;;;;;1.98;1.10;;;;;;;-145.69;78.97;70447.38;5066756;28;20562;-79
2022/06/25 08:58:27;;;;;;;2.10;1.00;;;;;;;-145.69;78.67;70405.59;5075003;28;20252;-79
2022/06/25 09:00:54;;;;;;;1.20;0.90;;;;;;;-145.69;74.91;70369.78;5075246;28;20203;-79
2022/06/25 09:03:20;;;;;;;2.67;0.73;;;;;;;-145.69;72.57;70347.91;5074811;28;20203;-80
2022/06/25 09:05:48;;;;;;;1.45;1.20;;;;;;;-145.69;74.94;70345.91;5074920;28;20199;-79
2022/06/25 09:08:16;;;;;;;3.42;0.90;;;;;;;-145.69;72.81;70369.78;5075005;28;20199;-79
2022/06/25 09:10:44;;;;;;;6.97;1.00;;;;;;;-145.69;75.66;70355.88;5074675;28;20210;-79
2022/06/25 09:13:12;;;;;;;2.78;1.00;;;;;;;-145.69;62.96;70383.72;5074791;28;20199;-79
2022/06/25 09:15:41;;;;;;;1.90;0.98;;;;;;;-145.69;74.87;70355.88;5074680;28;20227;-79
2022/06/25 09:18:10;;;;;;;2.80;1.05;;;;;;;-145.69;79.41;70351.88;5074533;28;20203;-79
2022/06/25 09:20:38;;;;;;;1.88;0.95;;;;;;;-145.69;71.66;70337.97;5074500;28;20202;-78
2022/06/25 09:23:07;;;;;;;3.70;1.00;;;;;;;-145.69;70.37;70326.03;5070813;28;20276;-78
2022/06/25 09:25:37;;;;;;;1.38;0.90;;;;;;;-145.69;68.90;70294.19;5062154;28;20600;-77
2022/06/25 09:28:04;;;;;;;2.92;1.05;;;;;;;-145.69;74.78;70304.13;5074659;28;20194;-78
2022/06/25 09:30:32;;;;;;;2.60;1.10;;;;;;;-145.69;70.80;70260.38;5074225;28;20658;-76
2022/06/25 09:33:00;;;;;;;3.70;1.00;;;;;;;-145.69;73.21;70196.72;5073813;28;20492;-77
2022/06/25 09:35:34;;;;;;;2.25;0.98;;;;;;;-145.69;69.55;70172.84;5074361;28;20233;-78
2022/06/25 09:38:03;;;;;;;2.33;0.90;;;;;;;-145.69;65.67;70200.69;5074277;28;20197;-78
2022/06/25 09:40:31;;;;;;;6.50;0.90;;;;;;;-145.69;67.21;70200.69;5074253;28;20226;-79
2022/06/25 09:42:58;;;;;;;2.15;0.85;;;;;;;-145.69;67.35;70244.47;5074249;28;20205;-78
2022/06/25 09:45:25;;;;;;;2.05;1.00;;;;;;;-145.69;68.29;70200.69;5073353;28;20199;-77
2022/06/25 09:47:55;;;;;;;0.75;0.73;;;;;;;-145.69;68.36;70208.66;5073715;28;20198;-77
2022/06/25 09:50:22;;;;;;;4.88;1.05;;;;;;;-145.69;65.38;70262.38;5073884;28;20862;-77
2022/06/25 09:52:54;;;;;;;0.75;0.75;;;;;;;-145.69;66.11;70260.38;5073728;28;20198;-77
2022/06/25 09:55:23;;;;;;;3.40;0.82;;;;;;;-145.69;67.67;70256.41;5073901;28;20766;-78
2022/06/25 09:57:51;;;;;;;2.50;0.90;;;;;;;-145.69;65.56;70274.31;5073758;28;20561;-77
2022/06/25 10:00:19;;;;;;;1.70;1.00;;;;;;;-145.69;67.45;70286.25;5073909;28;20202;-77
2022/06/25 10:02:48;;;;;;;3.83;1.13;;;;;;;-145.69;66.88;70264.34;5073533;28;20208;-78
2022/06/25 10:05:17;;;;;;;1.90;0.90;;;;;;;-145.69;61.33;70270.31;5073705;28;20289;-79
2022/06/25 10:08:01;;;;;;;2.08;0.80;;;;;;;-145.69;64.18;70262.38;5053296;28;20242;-79
2022/06/25 10:10:30;;;;;;;1.40;0.80;;;;;;;-145.69;61.80;70262.38;5053390;28;20199;-79
2022/06/25 10:12:58;;;;;;;1.45;0.70;;;;;;;-145.69;67.13;70260.38;5052708;28;20242;-79
2022/06/25 10:15:25;;;;;;;2.72;1.02;;;;;;;-145.69;66.48;70280.28;5053396;28;20219;-77
2022/06/25 10:17:53;;;;;;;3.83;0.85;;;;;;;-145.69;69.14;70318.06;5053409;28;20207;-77
2022/06/25 10:20:21;;;;;;;1.27;1.00;;;;;;;-145.69;68.12;70304.13;5053245;28;20662;-79
2022/06/25 10:22:50;;;;;;;1.90;0.80;;;;;;;-145.69;65.66;70292.19;5059021;28;20230;-81
2022/06/25 10:25:19;;;;;;;1.73;1.00;;;;;;;-145.69;72.24;70236.50;5073459;28;20207;-79
2022/06/25 10:27:47;;;;;;;3.53;0.90;;;;;;;-145.69;63.14;70180.81;5073397;28;20203;-79
2022/06/25 10:30:34;;;;;;;2.83;0.70;;;;;;;-145.69;56.50;70141.03;5073166;28;20660;-78
2022/06/25 10:33:00;;;;;;;1.63;0.70;;;;;;;-145.69;65.46;70131.06;5073124;28;20696;-79
2022/06/25 10:35:29;;;;;;;1.73;0.90;;;;;;;-145.69;59.18;70115.16;5072628;28;20222;-76
2022/06/25 10:38:02;;;;;;;1.05;0.70;;;;;;;-145.69;60.86;70137.03;5073139;28;20194;-78
2022/06/25 10:40:28;;;;;;;2.17;0.90;;;;;;;-145.69;60.19;70125.09;5073376;28;20597;-78
2022/06/25 10:43:00;;;;;;;1.02;0.73;;;;;;;-145.69;56.85;70129.09;5073132;28;20290;-78
2022/06/25 10:48:25;;;;;;;1.63;0.70;;;;;;;-145.69;58.48;70137.03;5090573;28;21090;-77
2022/06/25 10:50:52;;;;;;;3.90;0.80;;;;;;;-145.69;60.26;70160.91;5089980;28;20209;-77
2022/06/25 10:53:20;;;;;;;6.75;1.42;;;;;;;-145.69;60.42;70133.06;5084731;28;20201;-77
2022/06/25 10:56:14;;;;;;;1.98;0.80;;;;;;;-145.69;58.89;70107.19;5087214;28;20240;-77
2022/06/25 10:58:47;;;;;;;2.55;0.75;;;;;;;-145.69;61.83;70095.28;5089961;28;20465;-77
2022/06/25 11:01:31;;;;;;;0.50;0.50;;;;;;;-145.69;59.51;70121.13;5090172;28;20205;-76
2022/06/25 11:04:08;;;;;;;3.42;0.93;;;;;;;-145.69;63.03;70141.03;5090095;28;20198;-76
2022/06/25 11:06:38;;;;;;;1.35;0.70;;;;;;;-145.69;55.14;70107.19;5089674;28;20403;-77
2022/06/25 11:09:08;;;;;;;0.70;0.70;;;;;;;-145.69;65.63;70139.03;5090177;28;20198;-76
2022/06/25 11:11:35;;;;;;;2.20;0.70;;;;;;;-145.69;56.10;70137.03;5089941;28;20202;-77
2022/06/25 11:14:17;;;;;;;0.85;0.80;;;;;;;-145.69;58.14;70117.16;5090230;28;20587;-79
2022/06/25 11:16:43;;;;;;;2.08;0.85;;;;;;;-145.69;67.59;70061.44;5089612;28;20556;-77
2022/06/25 11:19:11;;;;;;;3.10;0.77;;;;;;;-145.69;63.56;70031.63;5089473;28;20290;-76
2022/06/25 11:21:39;;;;;;;2.03;0.90;;;;;;;-145.69;54.88;70015.69;5089943;28;20608;-76
2022/06/25 11:24:20;;;;;;;1.20;0.70;;;;;;;-145.69;53.32;69977.91;5089659;28;20198;-78